Time;durP1;ratioP1;P1;durP2;ratioP2;P2;SDS_P1;SDS_P2;PMS_P1;PMS_P2;Temp;Humidity;BMP_temperature;BMP_pressure;BME280_temperature;BME280_humidity;BME280_pressure;Samples;Min_cycle;Max_cycle;Signal;HPM_P1;HPM_P2
2023/12/23 00:02:30;;;;;;;9.70;0.60;;;;;;;2.55;72.49;97805.67;111560;1260;22449;-74
2023/12/23 00:05:19;;;;;;;;;;;;;;;2.57;72.67;97811.11;111578;1261;22409;-74
2023/12/23 00:08:10;;;;;;;10.10;0.80;;;;;;;2.57;72.88;97805.45;111762;1261;22275;-74
2023/12/23 00:11:00;;;;;;;4.30;0.60;;;;;;;2.58;72.98;97797.15;111742;1265;22174;-75
2023/12/23 00:13:51;;;;;;;9.40;0.50;;;;;;;2.59;72.72;97790.66;111574;1264;22086;-75
2023/12/23 00:16:41;;;;;;;11.40;1.00;;;;;;;2.61;72.78;97794.33;111591;1266;22106;-75
2023/12/23 00:19:32;;;;;;;6.90;0.80;;;;;;;2.61;73.18;97801.14;111754;1265;23071;-74
2023/12/23 00:22:23;;;;;;;10.30;0.80;;;;;;;2.60;73.69;97804.23;111746;1265;22080;-74
2023/12/23 00:25:14;;;;;;;4.60;0.60;;;;;;;2.58;73.55;97815.64;111583;1264;22073;-73
2023/12/23 00:28:06;;;;;;;10.80;0.60;;;;;;;2.56;73.85;97816.85;111727;1256;22151;-74
2023/12/23 00:30:57;;;;;;;5.30;0.50;;;;;;;2.53;74.10;97817.89;111748;1263;22097;-73
2023/12/23 00:33:49;;;;;;;8.70;0.70;;;;;;;2.50;74.81;97826.36;111479;1266;22942;-75
2023/12/23 00:36:40;;;;;;;6.70;0.40;;;;;;;2.46;75.43;97834.67;111588;1263;22911;-73
2023/12/23 00:39:31;;;;;;;7.00;0.40;;;;;;;2.42;76.09;97832.58;111583;1266;22323;-75
2023/12/23 00:42:22;;;;;;;3.30;0.50;;;;;;;2.35;76.41;97832.39;111654;1265;22180;-74
2023/12/23 00:45:13;;;;;;;8.30;0.50;;;;;;;2.31;76.91;97832.58;111744;1263;22397;-74
2023/12/23 00:48:05;;;;;;;5.80;0.50;;;;;;;2.25;77.35;97826.55;111779;1254;23018;-72
2023/12/23 00:50:56;;;;;;;9.80;0.80;;;;;;;2.21;77.43;97829.81;111823;1265;22073;-73
2023/12/23 00:53:47;;;;;;;3.70;0.60;;;;;;;2.18;77.85;97840.88;111727;1266;22145;-74
2023/12/23 00:56:38;;;;;;;11.20;0.90;;;;;;;2.15;77.76;97855.05;111599;1265;22090;-74
2023/12/23 00:59:29;;;;;;;3.30;0.40;;;;;;;2.14;77.57;97865.42;111739;1262;22150;-75
2023/12/23 01:02:20;;;;;;;3.80;0.30;;;;;;;2.12;77.89;97845.95;111592;1257;22367;-74
2023/12/23 01:05:11;;;;;;;2.80;0.40;;;;;;;2.09;78.05;97839.80;111755;1257;22438;-73
2023/12/23 01:08:02;;;;;;;8.80;0.50;;;;;;;2.05;78.42;97842.85;111587;1266;22138;-73
2023/12/23 01:10:53;;;;;;;2.80;0.30;;;;;;;2.01;78.26;97852.20;111579;1266;22103;-74
2023/12/23 01:13:43;;;;;;;7.50;0.50;;;;;;;1.97;78.37;97871.46;111588;1266;22111;-74
2023/12/23 01:16:34;;;;;;;6.20;0.30;;;;;;;1.91;78.54;97879.30;111748;1265;22079;-73
2023/12/23 01:19:23;;;;;;;;;;;;;;;1.86;78.87;97901.20;111747;1262;22335;-75
2023/12/23 01:22:14;;;;;;;5.40;0.30;;;;;;;1.80;79.19;97907.00;111755;1265;22153;-74
2023/12/23 01:25:06;;;;;;;4.50;0.30;;;;;;;1.75;79.67;97912.97;111729;1263;22153;-73
2023/12/23 01:28:00;;;;;;;3.20;0.40;;;;;;;1.70;79.44;97912.23;111736;1264;22166;-73
2023/12/23 01:30:51;;;;;;;3.30;0.30;;;;;;;1.65;79.65;97915.66;111627;1263;22203;-73
2023/12/23 01:33:42;;;;;;;4.50;0.40;;;;;;;1.61;79.60;97924.99;111765;1264;22842;-73
2023/12/23 01:36:31;;;;;;;;;;;;;;;1.58;79.50;97930.79;111834;1261;22384;-73
2023/12/23 01:39:23;;;;;;;8.50;0.30;;;;;;;1.53;79.68;97930.22;111558;1265;22106;-73
2023/12/23 01:42:15;;;;;;;3.10;0.10;;;;;;;1.51;79.65;97931.98;111688;1265;22190;-74
2023/12/23 01:45:05;;;;;;;;;;;;;;;1.49;79.53;97930.09;111669;1260;22390;-74
2023/12/23 01:47:57;;;;;;;2.00;0.10;;;;;;;1.45;79.80;97939.95;111761;1262;22297;-73
2023/12/23 01:50:49;;;;;;;2.20;0.10;;;;;;;1.41;79.65;97947.36;111748;1257;22103;-74
2023/12/23 01:53:40;;;;;;;0.30;0.00;;;;;;;1.41;79.77;97951.23;111733;1263;22141;-73
2023/12/23 01:56:31;;;;;;;2.10;0.10;;;;;;;1.39;80.18;97957.39;111766;1257;22447;-74
2023/12/23 01:59:22;;;;;;;0.90;0.10;;;;;;;1.37;80.14;97964.71;111638;1257;22332;-73
2023/12/23 02:02:14;;;;;;;1.70;0.20;;;;;;;1.35;80.21;97967.77;111868;1257;22638;-74
2023/12/23 02:05:05;;;;;;;2.20;0.10;;;;;;;1.34;80.14;97972.91;111764;1265;22288;-76
2023/12/23 02:07:56;;;;;;;0.40;0.00;;;;;;;1.33;80.25;97975.23;111569;1266;22154;-73
2023/12/23 02:10:50;;;;;;;6.90;0.20;;;;;;;1.32;80.32;97974.66;111613;1266;22340;-73
2023/12/23 02:13:52;;;;;;;2.50;0.10;;;;;;;1.31;80.39;97972.16;111618;1266;22078;-74
2023/12/23 02:16:43;;;;;;;1.50;0.50;;;;;;;1.31;80.20;97973.25;111603;1266;22887;-72
2023/12/23 02:19:34;;;;;;;2.20;0.10;;;;;;;1.32;80.58;97982.65;111794;1265;22164;-74
2023/12/23 02:22:23;;;;;;;;;;;;;;;1.31;80.23;97981.90;111777;1265;22305;-74
2023/12/23 02:25:14;;;;;;;1.50;0.20;;;;;;;1.31;80.40;97989.77;111623;1257;22937;-73
2023/12/23 02:28:08;;;;;;;0.90;0.10;;;;;;;1.30;80.31;97997.13;111611;1263;23038;-74
2023/12/23 02:31:00;;;;;;;3.10;0.20;;;;;;;1.29;80.18;98001.48;111717;1261;22214;-74
2023/12/23 02:33:51;;;;;;;3.90;0.20;;;;;;;1.29;80.20;98011.86;111762;1257;22222;-74
2023/12/23 02:36:42;;;;;;;0.60;0.10;;;;;;;1.29;79.92;98016.58;111767;1263;22224;-72
2023/12/23 02:39:33;;;;;;;1.30;0.20;;;;;;;1.28;79.73;98025.02;111683;1263;22340;-72
2023/12/23 02:42:22;;;;;;;;;;;;;;;1.28;79.56;98035.21;111680;1257;23328;-74
2023/12/23 02:45:13;;;;;;;1.70;0.10;;;;;;;1.26;79.64;98042.55;111756;1261;22320;-73
2023/12/23 02:48:05;;;;;;;3.30;1.20;;;;;;;1.24;79.59;98047.83;111722;1265;22354;-73
2023/12/23 02:50:56;;;;;;;1.90;0.10;;;;;;;1.24;79.83;98064.90;111653;1262;22088;-73
2023/12/23 02:53:47;;;;;;;2.60;0.10;;;;;;;1.23;79.83;98060.64;111797;1258;22153;-74
2023/12/23 02:56:38;;;;;;;1.00;0.10;;;;;;;1.22;80.04;98064.27;111810;1258;22303;-73
2023/12/23 02:59:29;;;;;;;0.80;0.10;;;;;;;1.23;80.32;98083.39;111579;1257;23066;-72
2023/12/23 03:02:19;;;;;;;1.60;0.10;;;;;;;1.24;80.44;98082.39;111435;1265;22855;-74
2023/12/23 03:05:11;;;;;;;0.30;0.10;;;;;;;1.25;80.40;98079.37;111739;1257;24136;-74
2023/12/23 03:08:01;;;;;;;1.00;0.00;;;;;;;1.26;80.57;98083.48;111760;1265;22848;-74
2023/12/23 03:10:53;;;;;;;1.50;0.10;;;;;;;1.25;80.59;98085.08;111625;1266;22590;-73
2023/12/23 03:13:43;;;;;;;2.50;0.00;;;;;;;1.25;80.78;98089.02;111601;1266;22835;-75
2023/12/23 03:16:35;;;;;;;1.50;0.10;;;;;;;1.26;80.85;98100.83;111773;1265;22304;-73
2023/12/23 03:19:26;;;;;;;1.00;0.00;;;;;;;1.27;80.86;98101.17;111630;1253;23026;-73
2023/12/23 03:22:18;;;;;;;1.30;0.10;;;;;;;1.29;81.16;98114.19;111613;1266;22168;-74
2023/12/23 03:25:10;;;;;;;0.80;0.10;;;;;;;1.29;81.47;98114.40;111443;1260;22106;-73
2023/12/23 03:28:00;;;;;;;1.00;0.10;;;;;;;1.31;81.69;98126.52;111626;1251;22151;-73
2023/12/23 03:30:49;;;;;;;;;;;;;;;1.31;81.52;98133.79;111629;1263;23155;-74
2023/12/23 03:33:41;;;;;;;2.90;0.20;;;;;;;1.32;81.60;98139.41;111727;1263;22163;-74
2023/12/23 03:36:32;;;;;;;2.80;0.20;;;;;;;1.32;81.46;98152.76;111758;1258;23007;-74
2023/12/23 03:39:23;;;;;;;1.90;0.10;;;;;;;1.33;80.81;98169.36;111780;1263;22936;-73
2023/12/23 03:42:14;;;;;;;1.10;0.10;;;;;;;1.33;80.63;98174.70;111699;1262;23135;-73
2023/12/23 03:45:07;;;;;;;2.50;0.20;;;;;;;1.33;81.09;98186.95;111675;1263;22342;-73
2023/12/23 03:47:58;;;;;;;4.60;0.10;;;;;;;1.32;81.10;98183.14;111757;1261;22217;-73
2023/12/23 03:50:48;;;;;;;0.50;0.00;;;;;;;1.32;80.72;98190.31;111750;1258;22983;-73
2023/12/23 03:53:40;;;;;;;1.60;0.10;;;;;;;1.31;80.81;98185.31;111663;1257;22194;-73
2023/12/23 03:56:29;;;;;;;;;;;;;;;1.31;80.79;98188.09;111791;1259;22919;-73
2023/12/23 03:59:19;;;;;;;1.60;0.10;;;;;;;1.30;80.71;98191.58;111566;1265;22263;-74
2023/12/23 04:02:10;;;;;;;5.30;0.20;;;;;;;1.29;80.73;98196.55;111613;1257;22421;-73
2023/12/23 04:04:59;;;;;;;;;;;;;;;1.27;80.48;98206.20;111474;1266;22231;-73
2023/12/23 04:07:51;;;;;;;1.10;0.00;;;;;;;1.25;80.54;98214.20;111563;1266;22102;-73
2023/12/23 04:10:41;;;;;;;1.10;0.10;;;;;;;1.24;80.51;98226.88;111549;1266;22340;-73
2023/12/23 04:13:33;;;;;;;2.00;0.20;;;;;;;1.22;80.09;98238.91;111582;1264;22069;-72
2023/12/23 04:16:24;;;;;;;2.00;0.10;;;;;;;1.20;79.59;98248.96;111658;1265;22863;-73
2023/12/23 04:19:14;;;;;;;2.90;0.10;;;;;;;1.20;78.75;98270.70;111460;1260;22103;-73
2023/12/23 04:22:06;;;;;;;1.10;0.10;;;;;;;1.19;78.82;98271.36;111613;1264;22211;-74
2023/12/23 04:24:56;;;;;;;2.00;1.00;;;;;;;1.20;78.61;98287.89;111800;1265;22101;-73
2023/12/23 04:27:46;;;;;;;0.80;0.10;;;;;;;1.20;77.98;98292.75;111664;1263;22325;-73
2023/12/23 04:30:37;;;;;;;3.00;0.10;;;;;;;1.19;77.51;98306.06;111542;1260;22329;-75
2023/12/23 04:33:26;;;;;;;;;;;;;;;1.17;77.17;98311.07;111565;1254;22333;-73
2023/12/23 04:36:17;;;;;;;1.90;0.10;;;;;;;1.15;77.14;98308.66;111569;1260;23096;-74
2023/12/23 04:39:08;;;;;;;0.50;0.10;;;;;;;1.14;76.58;98311.92;111516;1266;22093;-73
2023/12/23 04:41:59;;;;;;;0.70;0.00;;;;;;;1.12;76.96;98315.94;111480;1265;22335;-74
2023/12/23 04:44:51;;;;;;;1.40;0.20;;;;;;;1.09;76.49;98320.55;111518;1263;22161;-73
2023/12/23 04:47:40;;;;;;;;;;;;;;;1.06;76.15;98323.95;111721;1258;22488;-73
2023/12/23 04:50:30;;;;;;;1.90;0.20;;;;;;;1.02;75.73;98346.80;111845;1265;22405;-75
2023/12/23 04:53:20;;;;;;;;;;;;;;;0.99;75.90;98349.77;111826;1257;22310;-73
2023/12/23 04:56:11;;;;;;;0.30;0.00;;;;;;;0.96;76.12;98362.36;111728;1257;22541;-73
2023/12/23 04:59:01;;;;;;;1.00;0.00;;;;;;;0.94;76.04;98367.17;110094;1266;22517;-72
2023/12/23 05:01:52;;;;;;;1.10;0.00;;;;;;;0.91;75.94;98366.33;108323;1266;24333;-72
2023/12/23 05:04:46;;;;;;;1.50;0.10;;;;;;;0.88;76.13;98369.95;108265;1266;22668;-73
2023/12/23 05:07:37;;;;;;;6.60;0.20;;;;;;;0.84;76.17;98369.34;108380;1266;23543;-73
2023/12/23 05:10:27;;;;;;;0.70;0.10;;;;;;;0.80;76.36;98376.48;108605;1265;25246;-75
2023/12/23 05:13:18;;;;;;;3.30;0.20;;;;;;;0.76;76.41;98390.25;108453;1253;22641;-72
2023/12/23 05:16:09;;;;;;;1.50;0.10;;;;;;;0.73;76.49;98391.44;108398;1266;22535;-73
2023/12/23 05:19:00;;;;;;;3.70;0.10;;;;;;;0.72;76.68;98394.79;108544;1263;22541;-73
2023/12/23 05:21:51;;;;;;;1.10;0.10;;;;;;;0.70;76.89;98402.71;108448;1264;22648;-74
2023/12/23 05:24:43;;;;;;;2.90;0.40;;;;;;;0.68;77.06;98406.10;108355;1266;25329;-73
2023/12/23 05:27:34;;;;;;;1.70;0.30;;;;;;;0.66;77.22;98415.84;108428;1261;23890;-73
2023/12/23 05:30:25;;;;;;;1.00;0.10;;;;;;;0.65;77.48;98415.21;108398;1260;24270;-72
2023/12/23 05:33:18;;;;;;;1.90;0.20;;;;;;;0.63;77.68;98427.89;108495;1258;24350;-74
2023/12/23 05:36:10;;;;;;;5.00;0.20;;;;;;;0.62;77.70;98434.15;108356;1263;22893;-74
2023/12/23 05:39:01;;;;;;;2.00;0.00;;;;;;;0.60;77.79;98434.69;108387;1265;22589;-74
2023/12/23 05:41:52;;;;;;;2.30;0.10;;;;;;;0.58;77.98;98438.69;108576;1264;24420;-73
2023/12/23 05:44:43;;;;;;;3.40;0.20;;;;;;;0.57;77.92;98444.45;108341;1266;22733;-73
2023/12/23 05:47:34;;;;;;;1.40;0.10;;;;;;;0.57;77.88;98456.39;108347;1266;24229;-73
2023/12/23 05:50:25;;;;;;;1.80;0.10;;;;;;;0.56;77.94;98460.10;108408;1266;22640;-73
2023/12/23 05:53:16;;;;;;;1.70;0.20;;;;;;;0.56;77.75;98467.73;108447;1260;22618;-74
2023/12/23 05:56:08;;;;;;;2.00;0.20;;;;;;;0.56;77.58;98468.56;108357;1263;23360;-73
2023/12/23 05:58:59;;;;;;;1.80;0.00;;;;;;;0.56;77.72;98476.81;108238;1260;22570;-76
2023/12/23 06:01:50;;;;;;;0.50;0.20;;;;;;;0.56;77.72;98484.92;108215;1267;24403;-73
2023/12/23 06:04:40;;;;;;;1.00;0.10;;;;;;;0.57;77.77;98483.86;108360;1267;22965;-74
2023/12/23 06:07:31;;;;;;;3.90;0.20;;;;;;;0.57;77.82;98491.52;108377;1267;22641;-73
2023/12/23 06:10:22;;;;;;;1.90;0.10;;;;;;;0.57;77.65;98493.19;108549;1257;22624;-73
2023/12/23 06:13:13;;;;;;;1.80;0.10;;;;;;;0.58;77.68;98494.79;108722;1257;22550;-74
2023/12/23 06:16:08;;;;;;;1.60;0.20;;;;;;;0.59;77.55;98493.91;108461;1265;22636;-74
2023/12/23 06:18:59;;;;;;;3.40;0.10;;;;;;;0.58;77.67;98491.66;108466;1266;22563;-76
2023/12/23 06:21:50;;;;;;;1.80;0.20;;;;;;;0.56;77.67;98491.65;108554;1250;22578;-75
2023/12/23 06:24:41;;;;;;;2.50;0.20;;;;;;;0.55;77.67;98493.44;108626;1265;23727;-73
2023/12/23 06:27:32;;;;;;;2.30;0.10;;;;;;;0.52;77.75;98503.64;108609;1261;25277;-74
2023/12/23 06:30:23;;;;;;;2.20;0.10;;;;;;;0.50;77.58;98503.48;108517;1265;25536;-74
2023/12/23 06:33:14;;;;;;;4.90;0.20;;;;;;;0.50;77.53;98505.86;108608;1264;22668;-73
2023/12/23 06:36:08;;;;;;;2.60;0.40;;;;;;;0.49;77.45;98512.10;108628;1265;22533;-73
2023/12/23 06:38:59;;;;;;;4.10;0.30;;;;;;;0.47;77.56;98516.96;111573;1263;22153;-74
2023/12/23 06:41:48;;;;;;;;;;;;;;;0.44;77.32;98518.09;111760;1265;22327;-74
2023/12/23 06:44:38;;;;;;;4.30;0.20;;;;;;;0.44;77.41;98520.31;111826;1258;22591;-74
2023/12/23 06:47:27;;;;;;;;;;;;;;;0.43;77.37;98517.20;111853;1257;22325;-74
2023/12/23 06:50:18;;;;;;;4.40;0.20;;;;;;;0.44;77.28;98521.80;111823;1257;22186;-73
2023/12/23 06:53:10;;;;;;;3.20;0.30;;;;;;;0.45;77.18;98528.42;111708;1257;22148;-74
2023/12/23 06:56:04;;;;;;;2.70;0.30;;;;;;;0.45;77.24;98527.95;111745;1265;22120;-75
2023/12/23 06:58:55;;;;;;;2.60;0.20;;;;;;;0.46;77.33;98528.46;111698;1266;22097;-74
2023/12/23 07:01:46;;;;;;;2.90;0.20;;;;;;;0.46;77.43;98529.30;111700;1255;22180;-75
2023/12/23 07:04:36;;;;;;;4.00;0.40;;;;;;;0.46;77.53;98529.31;111721;1266;22235;-74
2023/12/23 07:07:27;;;;;;;2.90;0.30;;;;;;;0.47;77.66;98532.27;111831;1260;22444;-74
2023/12/23 07:10:18;;;;;;;6.60;0.40;;;;;;;0.47;77.71;98533.74;111839;1253;22391;-73
2023/12/23 07:13:08;;;;;;;;;;;;;;;0.48;77.85;98536.86;111679;1265;22345;-74
2023/12/23 07:15:58;;;;;;;3.50;0.30;;;;;;;0.47;78.17;98534.45;111677;1263;22094;-75
2023/12/23 07:18:49;;;;;;;1.70;0.20;;;;;;;0.48;78.32;98530.08;111694;1263;22125;-74
2023/12/23 07:21:40;;;;;;;5.70;0.30;;;;;;;0.50;78.52;98523.89;111800;1260;22308;-74
2023/12/23 07:24:30;;;;;;;7.00;0.20;;;;;;;0.52;78.75;98525.94;111752;1263;22116;-73
2023/12/23 07:27:19;;;;;;;;;;;;;;;0.55;78.76;98527.61;111724;1251;22286;-74
2023/12/23 07:30:12;;;;;;;4.20;0.30;;;;;;;0.58;78.82;98523.65;111687;1255;22898;-74
2023/12/23 07:33:04;;;;;;;7.10;0.30;;;;;;;0.62;78.83;98519.52;111585;1257;22098;-73
2023/12/23 07:35:54;;;;;;;1.90;0.10;;;;;;;0.65;78.89;98509.42;111612;1244;22220;-75
2023/12/23 07:38:45;;;;;;;4.40;0.30;;;;;;;0.68;78.85;98516.81;111629;1266;23063;-74
2023/12/23 07:41:36;;;;;;;3.00;0.40;;;;;;;0.71;78.82;98521.85;111698;1265;22137;-73
2023/12/23 07:44:27;;;;;;;5.10;0.30;;;;;;;0.75;78.74;98512.06;111801;1259;23002;-75
2023/12/23 07:47:17;;;;;;;6.50;1.30;;;;;;;0.78;78.76;98516.81;111691;1259;23188;-75
2023/12/23 07:50:11;;;;;;;4.30;0.30;;;;;;;0.82;78.72;98517.48;111589;1265;22873;-74
2023/12/23 07:53:02;;;;;;;5.40;0.50;;;;;;;0.86;78.70;98521.37;110109;1267;25316;-73
2023/12/23 07:55:53;;;;;;;6.80;0.40;;;;;;;0.89;78.70;98517.71;108216;1267;22711;-72
2023/12/23 07:58:44;;;;;;;8.30;0.50;;;;;;;0.92;78.62;98517.90;108220;1267;24190;-73
2023/12/23 08:01:35;;;;;;;4.90;0.30;;;;;;;0.94;78.54;98509.48;108324;1259;22522;-74
2023/12/23 08:04:26;;;;;;;4.30;0.40;;;;;;;0.96;78.58;98513.40;108375;1260;24195;-73
2023/12/23 08:07:17;;;;;;;5.50;0.70;;;;;;;0.98;78.58;98504.91;108630;1260;25482;-73
2023/12/23 08:10:09;;;;;;;6.70;0.70;;;;;;;1.00;78.53;98500.05;108588;1253;24360;-74
2023/12/23 08:13:00;;;;;;;10.80;1.10;;;;;;;1.02;78.52;98497.58;108410;1256;24256;-73
2023/12/23 08:15:51;;;;;;;10.10;0.50;;;;;;;1.05;78.44;98492.91;108445;1265;23209;-74
2023/12/23 08:18:42;;;;;;;4.80;0.40;;;;;;;1.09;78.48;98485.47;108464;1265;22768;-73
2023/12/23 08:21:33;;;;;;;4.10;0.60;;;;;;;1.12;78.41;98479.20;108655;1261;22715;-75
2023/12/23 08:24:23;;;;;;;13.50;1.40;;;;;;;1.15;78.33;98477.02;108516;1265;23559;-74
2023/12/23 08:27:15;;;;;;;6.50;0.40;;;;;;;1.19;78.00;98483.20;108522;1260;22693;-75
2023/12/23 08:30:07;;;;;;;6.70;0.40;;;;;;;1.23;78.05;98480.61;108558;1262;23373;-75
2023/12/23 08:32:58;;;;;;;7.30;0.60;;;;;;;1.27;77.93;98476.98;111643;1262;23070;-75
2023/12/23 08:35:49;;;;;;;13.50;0.90;;;;;;;1.30;77.85;98475.98;108866;1262;22642;-74
2023/12/23 08:38:40;;;;;;;9.80;0.60;;;;;;;1.33;77.67;98468.30;108592;1263;22575;-74
2023/12/23 08:41:31;;;;;;;7.20;0.60;;;;;;;1.36;77.69;98462.67;108631;1259;22850;-76
2023/12/23 08:44:22;;;;;;;10.50;0.90;;;;;;;1.39;77.74;98464.02;108561;1257;22676;-75
2023/12/23 08:47:13;;;;;;;6.30;0.50;;;;;;;1.41;77.71;98451.52;108661;1265;22520;-74
2023/12/23 08:50:05;;;;;;;10.60;0.60;;;;;;;1.44;77.77;98463.64;108660;1260;22574;-74
2023/12/23 08:52:56;;;;;;;11.30;0.80;;;;;;;1.46;77.56;98455.60;108772;1265;25427;-74
2023/12/23 08:55:47;;;;;;;8.40;0.50;;;;;;;1.49;77.64;98452.39;108703;1258;22665;-75
2023/12/23 08:58:38;;;;;;;8.30;0.70;;;;;;;1.51;77.73;98454.33;108603;1265;25535;-74
2023/12/23 09:01:29;;;;;;;10.80;0.80;;;;;;;1.54;77.82;98447.16;108318;1263;22680;-75
2023/12/23 09:04:20;;;;;;;8.00;0.80;;;;;;;1.56;77.84;98439.39;108612;1257;22563;-75
2023/12/23 09:07:12;;;;;;;8.10;0.70;;;;;;;1.58;77.92;98442.71;108586;1260;22634;-75
2023/12/23 09:10:03;;;;;;;6.10;0.50;;;;;;;1.61;78.03;98439.14;108714;1263;22548;-75
2023/12/23 09:12:54;;;;;;;12.30;0.80;;;;;;;1.64;78.05;98442.06;108395;1263;23890;-74
2023/12/23 09:15:45;;;;;;;7.20;0.70;;;;;;;1.68;78.05;98439.15;108413;1266;22605;-74
2023/12/23 09:18:36;;;;;;;9.10;0.70;;;;;;;1.71;78.20;98439.27;108329;1256;22579;-75
2023/12/23 09:21:27;;;;;;;6.60;0.60;;;;;;;1.75;78.28;98435.67;108434;1260;22547;-75
2023/12/23 09:24:18;;;;;;;7.50;0.60;;;;;;;1.80;78.33;98430.83;108420;1266;24049;-75
2023/12/23 09:27:09;;;;;;;8.90;0.80;;;;;;;1.83;78.34;98427.31;108297;1266;24237;-75
2023/12/23 09:30:00;;;;;;;6.20;0.60;;;;;;;1.86;78.40;98428.15;108348;1263;24217;-76
2023/12/23 09:32:51;;;;;;;10.70;1.00;;;;;;;1.90;78.31;98440.48;108336;1260;22755;-75
2023/12/23 09:35:42;;;;;;;8.50;0.90;;;;;;;1.94;78.49;98443.38;108285;1263;22520;-75
2023/12/23 09:38:34;;;;;;;12.90;0.70;;;;;;;1.97;78.52;98444.38;108259;1260;22537;-77
2023/12/23 09:41:25;;;;;;;9.30;1.00;;;;;;;2.01;78.59;98419.44;108273;1266;22556;-73
2023/12/23 09:44:16;;;;;;;7.10;0.70;;;;;;;2.04;78.43;98411.17;108324;1258;23001;-82
2023/12/23 09:47:07;;;;;;;9.20;0.80;;;;;;;2.11;78.43;98432.15;108220;1256;22764;-76
2023/12/23 09:49:59;;;;;;;10.50;1.10;;;;;;;2.17;78.45;98419.36;108139;1266;23525;-75
2023/12/23 09:52:53;;;;;;;5.40;0.70;;;;;;;2.20;78.70;98415.74;108411;1263;22570;-73
2023/12/23 09:55:45;;;;;;;12.10;1.70;;;;;;;2.23;78.84;98408.33;109365;1266;24354;-76
2023/12/23 09:58:37;;;;;;;11.20;1.40;;;;;;;2.24;78.92;98399.20;108465;1266;22554;-75
2023/12/23 10:01:28;;;;;;;10.10;1.10;;;;;;;2.26;79.06;98392.88;108393;1263;22651;-76
2023/12/23 10:04:19;;;;;;;11.40;0.90;;;;;;;2.27;79.33;98398.02;108346;1260;22672;-77
2023/12/23 10:07:10;;;;;;;10.60;0.80;;;;;;;2.28;79.45;98398.44;108448;1256;22638;-77
2023/12/23 10:10:01;;;;;;;14.80;1.10;;;;;;;2.29;79.66;98397.21;108504;1260;22557;-76
2023/12/23 10:12:53;;;;;;;12.90;0.90;;;;;;;2.30;79.71;98387.96;108529;1262;25485;-74
2023/12/23 10:15:44;;;;;;;7.10;0.70;;;;;;;2.31;79.84;98385.42;108545;1263;25487;-76
2023/12/23 10:18:35;;;;;;;7.20;0.60;;;;;;;2.30;80.15;98393.54;108612;1262;25328;-75
2023/12/23 10:21:26;;;;;;;7.90;0.80;;;;;;;2.30;80.24;98385.86;108538;1258;22587;-76
2023/12/23 10:24:17;;;;;;;13.60;1.20;;;;;;;2.31;80.39;98395.65;109322;1260;25268;-78
2023/12/23 10:27:08;;;;;;;8.70;1.10;;;;;;;2.31;80.65;98396.50;108545;1262;25557;-76
2023/12/23 10:30:03;;;;;;;9.30;0.70;;;;;;;2.32;81.08;98397.46;108729;1257;25475;-74
2023/12/23 10:33:00;;;;;;;6.70;0.60;;;;;;;2.31;81.37;98390.52;108551;1260;22544;-76
2023/12/23 10:35:51;;;;;;;6.80;0.80;;;;;;;2.29;81.97;98390.45;108458;1260;22737;-74
2023/12/23 10:38:49;;;;;;;3.10;0.60;;;;;;;2.27;82.40;98389.77;108551;1257;22533;-76
2023/12/23 10:41:52;;;;;;;4.90;0.50;;;;;;;2.25;82.56;98388.86;111704;1263;22767;-77
2023/12/23 10:44:44;;;;;;;5.50;0.50;;;;;;;2.22;82.75;98387.19;111766;1263;22138;-77
2023/12/23 10:47:35;;;;;;;4.70;0.70;;;;;;;2.21;83.16;98389.61;111720;1257;22224;-74
2023/12/23 10:50:29;;;;;;;4.10;0.70;;;;;;;2.19;83.64;98399.20;111795;1257;22155;-75
2023/12/23 10:53:20;;;;;;;3.30;0.60;;;;;;;2.16;84.25;98402.42;111792;1260;22326;-75
2023/12/23 10:56:12;;;;;;;7.00;1.40;;;;;;;2.10;85.03;98401.64;111757;1257;22355;-74
2023/12/23 10:59:03;;;;;;;5.00;0.60;;;;;;;2.04;85.05;98397.44;111791;1260;22370;-75
2023/12/23 11:01:55;;;;;;;8.10;1.00;;;;;;;1.99;85.34;98398.44;111696;1265;22784;-76
2023/12/23 11:04:50;;;;;;;5.40;0.70;;;;;;;1.96;85.52;98395.91;111739;1260;22775;-75
2023/12/23 11:07:44;;;;;;;7.80;0.80;;;;;;;1.94;86.05;98392.24;111751;1265;22157;-75
2023/12/23 11:10:37;;;;;;;4.80;0.70;;;;;;;1.91;86.15;98390.65;111683;1265;22365;-75
2023/12/23 11:13:29;;;;;;;3.10;0.60;;;;;;;1.89;86.27;98388.54;111735;1261;22293;-76
2023/12/23 11:16:21;;;;;;;6.80;1.00;;;;;;;1.88;86.49;98381.31;111783;1262;22157;-76
2023/12/23 11:19:12;;;;;;;11.20;1.40;;;;;;;1.88;86.60;98379.91;111765;1265;22222;-77
2023/12/23 11:22:24;;;;;;;10.70;2.40;;;;;;;1.87;86.54;98377.27;108963;1265;25392;-76
2023/12/23 11:25:38;;;;;;;12.30;1.90;;;;;;;1.87;86.67;98381.03;108732;1265;165979;-77
2023/12/23 11:28:31;;;;;;;9.50;1.60;;;;;;;1.86;86.85;98384.77;108713;1265;24292;-77
2023/12/23 11:31:24;;;;;;;10.60;1.50;;;;;;;1.85;86.88;98383.16;111755;1265;22934;-77
2023/12/23 11:34:20;;;;;;;7.90;1.40;;;;;;;1.85;87.12;98386.89;111703;1259;22235;-78
2023/12/23 11:37:12;;;;;;;12.50;1.90;;;;;;;1.82;87.25;98384.23;111739;1261;22139;-78
2023/12/23 11:40:05;;;;;;;9.20;1.30;;;;;;;1.81;87.19;98385.40;111596;1265;22234;-76
2023/12/23 11:42:56;;;;;;;4.00;0.60;;;;;;;1.79;87.11;98382.25;111715;1264;22152;-77
2023/12/23 11:45:50;;;;;;;6.00;0.70;;;;;;;1.76;87.05;98379.59;111760;1259;22226;-75
2023/12/23 11:48:41;;;;;;;5.20;0.80;;;;;;;1.74;87.37;98383.32;111688;1260;22198;-75
2023/12/23 11:51:32;;;;;;;3.70;0.70;;;;;;;1.68;87.79;98382.64;111647;1263;22139;-76
2023/12/23 11:54:24;;;;;;;7.60;0.80;;;;;;;1.62;87.79;98379.69;111705;1263;22343;-75
2023/12/23 11:57:15;;;;;;;7.40;1.00;;;;;;;1.57;87.99;98375.52;111727;1264;22445;-76
2023/12/23 12:00:05;;;;;;;;;;;;;;;1.52;88.58;98378.05;111752;1260;23119;-76
2023/12/23 12:02:58;;;;;;;4.40;0.60;;;;;;;1.44;88.63;98378.85;111667;1265;22195;-75
2023/12/23 12:05:49;;;;;;;4.50;0.50;;;;;;;1.38;88.67;98383.73;111640;1259;22720;-76
2023/12/23 12:08:40;;;;;;;6.60;0.80;;;;;;;1.30;88.80;98385.65;111777;1265;22357;-75
2023/12/23 12:11:29;;;;;;;;;;;;;;;1.23;88.87;98387.30;111768;1258;22435;-76
2023/12/23 12:14:20;;;;;;;4.10;0.50;;;;;;;1.16;88.94;98386.83;111681;1258;22288;-77
2023/12/23 12:17:13;;;;;;;5.70;0.90;;;;;;;1.11;89.36;98390.44;111743;1261;22987;-76
2023/12/23 12:20:04;;;;;;;5.40;0.70;;;;;;;1.04;89.69;98395.36;109383;1265;25138;-75
2023/12/23 12:22:56;;;;;;;2.60;0.50;;;;;;;0.98;89.63;98395.64;108516;1265;22528;-79
2023/12/23 12:25:51;;;;;;;8.70;0.50;;;;;;;0.93;89.91;98392.86;108610;1265;24322;-74
2023/12/23 12:28:42;;;;;;;8.20;0.90;;;;;;;0.88;90.47;98394.88;108498;1265;22731;-74
2023/12/23 12:31:34;;;;;;;3.50;0.50;;;;;;;0.81;90.28;98387.02;108820;1265;24358;-72
2023/12/23 12:34:25;;;;;;;2.60;0.50;;;;;;;0.77;90.56;98383.05;108838;1259;22533;-73
2023/12/23 12:37:16;;;;;;;4.30;0.40;;;;;;;0.74;90.67;98381.36;108689;1265;22824;-74
2023/12/23 12:40:10;;;;;;;8.10;0.90;;;;;;;0.72;90.75;98384.50;108558;1264;25989;-73
2023/12/23 12:43:06;;;;;;;11.90;1.10;;;;;;;0.70;91.04;98387.83;108794;1263;22514;-75
2023/12/23 12:45:59;;;;;;;7.10;0.70;;;;;;;0.67;91.20;98389.05;108487;1263;22537;-75
2023/12/23 12:48:51;;;;;;;5.50;0.90;;;;;;;0.66;91.58;98392.63;108423;1262;25246;-76
2023/12/23 12:51:43;;;;;;;4.40;0.80;;;;;;;0.64;91.56;98394.27;108738;1265;24314;-75
2023/12/23 12:54:36;;;;;;;12.90;2.10;;;;;;;0.63;91.80;98406.96;108851;1262;25279;-75
2023/12/23 12:57:27;;;;;;;11.30;1.10;;;;;;;0.61;91.75;98401.77;108821;1244;24298;-74
2023/12/23 13:00:19;;;;;;;5.70;0.60;;;;;;;0.60;92.06;98409.48;108888;1265;22530;-74
2023/12/23 13:03:11;;;;;;;7.00;0.90;;;;;;;0.59;92.41;98421.34;111737;1263;22863;-74
2023/12/23 13:06:02;;;;;;;4.80;0.60;;;;;;;0.57;92.20;98420.14;111727;1262;22675;-75
2023/12/23 13:08:54;;;;;;;3.90;0.70;;;;;;;0.57;92.43;98429.56;111726;1254;22140;-76
2023/12/23 13:11:44;;;;;;;5.60;0.60;;;;;;;0.57;92.54;98429.02;111659;1262;22094;-75
2023/12/23 13:14:35;;;;;;;3.40;0.70;;;;;;;0.56;92.67;98428.34;111600;1254;22151;-76
2023/12/23 13:17:26;;;;;;;5.10;0.70;;;;;;;0.56;92.66;98431.33;111703;1258;22167;-76
2023/12/23 13:20:16;;;;;;;;;;;;;;;0.56;93.02;98433.22;111735;1261;23056;-75
2023/12/23 13:23:06;;;;;;;6.00;0.60;;;;;;;0.54;92.98;98432.42;111666;1258;22291;-78
2023/12/23 13:25:57;;;;;;;3.80;0.40;;;;;;;0.54;92.87;98434.77;111738;1265;22328;-75
2023/12/23 13:28:48;;;;;;;5.10;0.60;;;;;;;0.55;92.98;98442.89;111486;1266;22901;-76
2023/12/23 13:31:39;;;;;;;6.60;0.80;;;;;;;0.56;93.11;98447.50;111749;1266;22165;-76